sensor_id;sensor_type;location;lat;lon;timestamp;pressure;altitude;pressure_sealevel;temperature;humidity
56142;BME280;42018;48.588;10.836;2023-01-01T00:00:39;97271.22;;;8.57;77.23
56142;BME280;42018;48.588;10.836;2023-01-01T00:03:24;97269.06;;;8.54;77.57
56142;BME280;42018;48.588;10.836;2023-01-01T00:06:12;97275.63;;;8.68;77.02
56142;BME280;42018;48.588;10.836;2023-01-01T00:08:57;97261.13;;;8.71;76.96
56142;BME280;42018;48.588;10.836;2023-01-01T00:12:03;97277.72;;;8.83;76.69
56142;BME280;42018;48.588;10.836;2023-01-01T00:14:49;97267.78;;;8.90;77.22
56142;BME280;42018;48.588;10.836;2023-01-01T00:17:34;97277.56;;;8.90;76.80
56142;BME280;42018;48.588;10.836;2023-01-01T00:20:20;97275.22;;;8.59;77.18
56142;BME280;42018;48.588;10.836;2023-01-01T00:23:05;97281.88;;;7.76;82.62
56142;BME280;42018;48.588;10.836;2023-01-01T00:25:50;97278.81;;;7.96;81.84
56142;BME280;42018;48.588;10.836;2023-01-01T00:28:36;97282.16;;;8.20;80.96
56142;BME280;42018;48.588;10.836;2023-01-01T00:31:21;97263.41;;;8.33;79.61
56142;BME280;42018;48.588;10.836;2023-01-01T00:34:08;97272.56;;;8.43;79.13
56142;BME280;42018;48.588;10.836;2023-01-01T00:36:54;97279.25;;;8.33;78.79
56142;BME280;42018;48.588;10.836;2023-01-01T00:39:39;97280.25;;;8.15;78.77
56142;BME280;42018;48.588;10.836;2023-01-01T00:42:25;97286.38;;;8.04;79.01
56142;BME280;42018;48.588;10.836;2023-01-01T00:45:10;97283.66;;;7.47;80.78
56142;BME280;42018;48.588;10.836;2023-01-01T00:47:56;97272.81;;;7.60;80.40
56142;BME280;42018;48.588;10.836;2023-01-01T00:50:41;97275.09;;;7.80;79.74
56142;BME280;42018;48.588;10.836;2023-01-01T00:53:27;97276.78;;;7.34;81.05
56142;BME280;42018;48.588;10.836;2023-01-01T00:56:12;97287.22;;;7.17;82.43
56142;BME280;42018;48.588;10.836;2023-01-01T00:58:57;97293.97;;;7.13;83.73
56142;BME280;42018;48.588;10.836;2023-01-01T01:01:43;97297.50;;;7.07;84.88
56142;BME280;42018;48.588;10.836;2023-01-01T01:04:28;97289.84;;;6.94;85.55
56142;BME280;42018;48.588;10.836;2023-01-01T01:07:13;97284.03;;;7.15;86.15
56142;BME280;42018;48.588;10.836;2023-01-01T01:09:59;97288.25;;;7.40;84.64
56142;BME280;42018;48.588;10.836;2023-01-01T01:12:44;97276.94;;;7.68;83.45
56142;BME280;42018;48.588;10.836;2023-01-01T01:15:29;97281.03;;;7.47;83.08
56142;BME280;42018;48.588;10.836;2023-01-01T01:18:15;97284.50;;;7.64;82.47
56142;BME280;42018;48.588;10.836;2023-01-01T01:21:00;97286.31;;;7.87;81.55
56142;BME280;42018;48.588;10.836;2023-01-01T01:23:46;97279.00;;;8.06;79.85
56142;BME280;42018;48.588;10.836;2023-01-01T01:26:33;97282.88;;;8.15;79.57
56142;BME280;42018;48.588;10.836;2023-01-01T01:29:20;97291.22;;;8.24;79.38
56142;BME280;42018;48.588;10.836;2023-01-01T01:32:06;97279.25;;;8.33;78.97
56142;BME280;42018;48.588;10.836;2023-01-01T01:34:51;97290.50;;;8.41;78.78
56142;BME280;42018;48.588;10.836;2023-01-01T01:37:36;97287.38;;;8.15;78.16
56142;BME280;42018;48.588;10.836;2023-01-01T01:40:22;97297.66;;;8.16;78.10
56142;BME280;42018;48.588;10.836;2023-01-01T01:43:18;97287.94;;;7.77;78.95
56142;BME280;42018;48.588;10.836;2023-01-01T01:46:09;97288.81;;;7.94;79.22
56142;BME280;42018;48.588;10.836;2023-01-01T01:49:01;97288.56;;;7.96;79.41
56142;BME280;42018;48.588;10.836;2023-01-01T01:51:47;97299.66;;;7.69;79.52
56142;BME280;42018;48.588;10.836;2023-01-01T01:54:33;97296.81;;;7.99;78.90
56142;BME280;42018;48.588;10.836;2023-01-01T01:57:20;97281.78;;;8.00;78.69
56142;BME280;42018;48.588;10.836;2023-01-01T02:00:06;97292.78;;;8.08;78.77
56142;BME280;42018;48.588;10.836;2023-01-01T02:03:05;97279.19;;;7.88;78.37
56142;BME280;42018;48.588;10.836;2023-01-01T02:05:52;97285.25;;;7.88;79.50
56142;BME280;42018;48.588;10.836;2023-01-01T02:08:38;97278.00;;;7.96;78.98
56142;BME280;42018;48.588;10.836;2023-01-01T02:11:23;97273.88;;;8.00;78.39
56142;BME280;42018;48.588;10.836;2023-01-01T02:14:09;97272.00;;;7.72;80.02
56142;BME280;42018;48.588;10.836;2023-01-01T02:16:56;97266.34;;;7.51;81.38
56142;BME280;42018;48.588;10.836;2023-01-01T02:22:49;97276.75;;;6.52;86.82
56142;BME280;42018;48.588;10.836;2023-01-01T02:28:49;97276.66;;;7.17;85.67
56142;BME280;42018;48.588;10.836;2023-01-01T02:31:41;97271.94;;;7.43;84.05
56142;BME280;42018;48.588;10.836;2023-01-01T02:34:35;97265.72;;;7.61;82.64
56142;BME280;42018;48.588;10.836;2023-01-01T02:37:23;97269.31;;;7.43;83.32
56142;BME280;42018;48.588;10.836;2023-01-01T02:40:10;97265.38;;;7.57;83.14
56142;BME280;42018;48.588;10.836;2023-01-01T02:42:57;97275.06;;;7.16;84.28
56142;BME280;42018;48.588;10.836;2023-01-01T02:45:42;97276.00;;;6.99;86.45
56142;BME280;42018;48.588;10.836;2023-01-01T02:55:11;97280.19;;;7.47;83.19
56142;BME280;42018;48.588;10.836;2023-01-01T02:57:58;97281.31;;;7.62;82.96
56142;BME280;42018;48.588;10.836;2023-01-01T03:01:16;97287.63;;;7.61;82.47
56142;BME280;42018;48.588;10.836;2023-01-01T03:07:15;97295.22;;;7.58;82.17
56142;BME280;42018;48.588;10.836;2023-01-01T03:10:08;97280.94;;;7.71;81.78
56142;BME280;42018;48.588;10.836;2023-01-01T03:17:04;97274.34;;;7.56;82.58
56142;BME280;42018;48.588;10.836;2023-01-01T03:19:32;97273.94;;;7.12;84.61
56142;BME280;42018;48.588;10.836;2023-01-01T03:22:20;97265.44;;;7.34;84.01
56142;BME280;42018;48.588;10.836;2023-01-01T03:25:16;97272.06;;;7.48;83.04
56142;BME280;42018;48.588;10.836;2023-01-01T03:28:09;97268.88;;;7.34;82.84
56142;BME280;42018;48.588;10.836;2023-01-01T03:30:56;97264.53;;;6.93;85.04
56142;BME280;42018;48.588;10.836;2023-01-01T03:33:46;97257.91;;;6.90;84.96
56142;BME280;42018;48.588;10.836;2023-01-01T03:36:36;97267.03;;;7.11;84.99
56142;BME280;42018;48.588;10.836;2023-01-01T03:39:26;97268.44;;;7.02;84.09
56142;BME280;42018;48.588;10.836;2023-01-01T03:42:33;97272.78;;;7.20;83.64
56142;BME280;42018;48.588;10.836;2023-01-01T03:45:40;97270.47;;;7.35;81.11
56142;BME280;42018;48.588;10.836;2023-01-01T03:48:27;97275.63;;;7.42;81.10
56142;BME280;42018;48.588;10.836;2023-01-01T03:55:22;97299.13;;;7.08;82.32
56142;BME280;42018;48.588;10.836;2023-01-01T03:58:22;97292.34;;;7.36;81.44
56142;BME280;42018;48.588;10.836;2023-01-01T04:01:19;97298.78;;;7.28;81.50
56142;BME280;42018;48.588;10.836;2023-01-01T04:04:08;97294.06;;;7.18;82.98
56142;BME280;42018;48.588;10.836;2023-01-01T04:06:56;97292.84;;;7.33;82.34
56142;BME280;42018;48.588;10.836;2023-01-01T04:09:46;97283.16;;;7.50;81.59
56142;BME280;42018;48.588;10.836;2023-01-01T04:12:33;97290.72;;;7.70;81.43
56142;BME280;42018;48.588;10.836;2023-01-01T04:15:21;97294.50;;;7.62;81.29
56142;BME280;42018;48.588;10.836;2023-01-01T04:18:08;97293.09;;;7.72;80.87
56142;BME280;42018;48.588;10.836;2023-01-01T04:20:53;97299.19;;;7.60;80.66
56142;BME280;42018;48.588;10.836;2023-01-01T04:23:38;97302.97;;;7.64;80.63
56142;BME280;42018;48.588;10.836;2023-01-01T04:26:24;97304.56;;;7.77;79.76
56142;BME280;42018;48.588;10.836;2023-01-01T04:29:09;97314.44;;;7.70;79.76
56142;BME280;42018;48.588;10.836;2023-01-01T04:31:54;97308.75;;;7.38;82.32
56142;BME280;42018;48.588;10.836;2023-01-01T04:34:40;97310.81;;;7.48;80.93
56142;BME280;42018;48.588;10.836;2023-01-01T04:37:25;97308.28;;;7.41;81.24
56142;BME280;42018;48.588;10.836;2023-01-01T04:40:12;97305.78;;;7.34;82.21
56142;BME280;42018;48.588;10.836;2023-01-01T04:42:58;97312.19;;;7.03;83.06
56142;BME280;42018;48.588;10.836;2023-01-01T04:45:43;97312.75;;;7.05;82.62
56142;BME280;42018;48.588;10.836;2023-01-01T04:48:31;97311.63;;;7.36;81.46
56142;BME280;42018;48.588;10.836;2023-01-01T04:51:18;97311.81;;;7.47;81.02
56142;BME280;42018;48.588;10.836;2023-01-01T04:54:03;97321.13;;;7.49;80.82
56142;BME280;42018;48.588;10.836;2023-01-01T04:56:49;97329.25;;;7.59;80.68
56142;BME280;42018;48.588;10.836;2023-01-01T04:59:34;97324.91;;;7.65;79.70
56142;BME280;42018;48.588;10.836;2023-01-01T05:02:19;97332.09;;;7.70;79.47
56142;BME280;42018;48.588;10.836;2023-01-01T05:05:05;97326.72;;;7.64;79.80
56142;BME280;42018;48.588;10.836;2023-01-01T05:07:50;97322.09;;;7.72;79.06
56142;BME280;42018;48.588;10.836;2023-01-01T05:10:36;97318.69;;;7.59;79.14
56142;BME280;42018;48.588;10.836;2023-01-01T05:13:21;97321.13;;;7.26;79.68
56142;BME280;42018;48.588;10.836;2023-01-01T05:16:09;97327.66;;;7.47;79.73
56142;BME280;42018;48.588;10.836;2023-01-01T05:18:55;97331.22;;;7.52;79.03
56142;BME280;42018;48.588;10.836;2023-01-01T05:21:40;97329.03;;;7.49;78.40
56142;BME280;42018;48.588;10.836;2023-01-01T05:24:26;97332.47;;;7.50;78.71
56142;BME280;42018;48.588;10.836;2023-01-01T05:27:11;97333.47;;;7.60;78.15
56142;BME280;42018;48.588;10.836;2023-01-01T05:29:56;97346.44;;;7.62;78.21
56142;BME280;42018;48.588;10.836;2023-01-01T05:32:42;97348.63;;;7.53;77.94
56142;BME280;42018;48.588;10.836;2023-01-01T05:35:28;97341.41;;;7.49;77.94
56142;BME280;42018;48.588;10.836;2023-01-01T05:38:13;97350.56;;;6.99;78.12
56142;BME280;42018;48.588;10.836;2023-01-01T05:40:58;97344.16;;;7.18;78.81
56142;BME280;42018;48.588;10.836;2023-01-01T05:43:44;97353.91;;;7.30;77.86
56142;BME280;42018;48.588;10.836;2023-01-01T05:46:29;97350.59;;;7.34;77.74
56142;BME280;42018;48.588;10.836;2023-01-01T05:49:15;97350.47;;;7.41;76.86
56142;BME280;42018;48.588;10.836;2023-01-01T05:52:01;97366.75;;;7.38;76.38
56142;BME280;42018;48.588;10.836;2023-01-01T05:54:46;97378.44;;;7.42;76.88
56142;BME280;42018;48.588;10.836;2023-01-01T05:57:31;97374.31;;;7.34;76.88
56142;BME280;42018;48.588;10.836;2023-01-01T06:00:17;97373.84;;;7.49;75.70
56142;BME280;42018;48.588;10.836;2023-01-01T06:03:02;97366.41;;;7.34;76.07
56142;BME280;42018;48.588;10.836;2023-01-01T06:05:48;97377.19;;;7.44;76.28
56142;BME280;42018;48.588;10.836;2023-01-01T06:08:33;97380.50;;;7.40;76.81
56142;BME280;42018;48.588;10.836;2023-01-01T06:11:19;97387.44;;;7.11;76.35
56142;BME280;42018;48.588;10.836;2023-01-01T06:14:05;97388.06;;;7.36;76.57
56142;BME280;42018;48.588;10.836;2023-01-01T06:16:50;97401.25;;;7.36;76.41
56142;BME280;42018;48.588;10.836;2023-01-01T06:19:35;97387.38;;;7.41;76.03
56142;BME280;42018;48.588;10.836;2023-01-01T06:22:21;97391.16;;;7.33;76.52
56142;BME280;42018;48.588;10.836;2023-01-01T06:25:07;97392.41;;;7.31;76.86
56142;BME280;42018;48.588;10.836;2023-01-01T06:27:52;97389.19;;;7.29;76.87
56142;BME280;42018;48.588;10.836;2023-01-01T06:30:37;97404.66;;;7.13;77.08
56142;BME280;42018;48.588;10.836;2023-01-01T06:33:23;97403.03;;;7.12;76.93
56142;BME280;42018;48.588;10.836;2023-01-01T06:36:10;97399.97;;;7.15;76.31
56142;BME280;42018;48.588;10.836;2023-01-01T06:38:56;97407.69;;;6.87;78.09
56142;BME280;42018;48.588;10.836;2023-01-01T06:41:42;97402.09;;;6.65;76.76
56142;BME280;42018;48.588;10.836;2023-01-01T06:44:28;97404.69;;;6.23;78.00
56142;BME280;42018;48.588;10.836;2023-01-01T06:47:13;97410.84;;;5.73;80.54
56142;BME280;42018;48.588;10.836;2023-01-01T06:49:58;97429.69;;;5.70;81.05
56142;BME280;42018;48.588;10.836;2023-01-01T06:52:46;97418.44;;;5.63;80.41
56142;BME280;42018;48.588;10.836;2023-01-01T06:55:31;97422.19;;;5.49;82.43
56142;BME280;42018;48.588;10.836;2023-01-01T06:58:17;97416.69;;;5.75;82.01
56142;BME280;42018;48.588;10.836;2023-01-01T07:01:13;97419.78;;;5.91;82.42
56142;BME280;42018;48.588;10.836;2023-01-01T07:04:02;97424.16;;;5.97;81.70
56142;BME280;42018;48.588;10.836;2023-01-01T07:06:47;97429.28;;;6.29;81.14
56142;BME280;42018;48.588;10.836;2023-01-01T07:09:33;97423.06;;;6.41;80.83
56142;BME280;42018;48.588;10.836;2023-01-01T07:12:18;97425.78;;;6.35;80.46
56142;BME280;42018;48.588;10.836;2023-01-01T07:15:04;97437.09;;;6.35;80.16
56142;BME280;42018;48.588;10.836;2023-01-01T07:17:49;97447.38;;;5.82;82.88
56142;BME280;42018;48.588;10.836;2023-01-01T07:20:34;97433.25;;;6.19;82.17
56142;BME280;42018;48.588;10.836;2023-01-01T07:23:20;97446.09;;;6.28;80.76
56142;BME280;42018;48.588;10.836;2023-01-01T07:26:05;97449.88;;;6.50;80.29
56142;BME280;42018;48.588;10.836;2023-01-01T07:28:51;97461.06;;;6.64;80.24
56142;BME280;42018;48.588;10.836;2023-01-01T07:31:38;97469.75;;;6.64;79.52
56142;BME280;42018;48.588;10.836;2023-01-01T07:34:23;97464.28;;;6.66;78.55
56142;BME280;42018;48.588;10.836;2023-01-01T07:37:09;97464.28;;;6.66;79.12
56142;BME280;42018;48.588;10.836;2023-01-01T07:39:54;97464.13;;;6.61;79.11
56142;BME280;42018;48.588;10.836;2023-01-01T07:42:39;97469.94;;;6.51;80.48
56142;BME280;42018;48.588;10.836;2023-01-01T07:45:25;97469.78;;;6.09;79.55
56142;BME280;42018;48.588;10.836;2023-01-01T07:48:13;97459.94;;;6.23;80.24
56142;BME280;42018;48.588;10.836;2023-01-01T07:50:59;97466.50;;;6.32;78.97
56142;BME280;42018;48.588;10.836;2023-01-01T07:53:44;97471.69;;;6.20;79.13
56142;BME280;42018;48.588;10.836;2023-01-01T07:56:30;97481.91;;;6.10;78.82
56142;BME280;42018;48.588;10.836;2023-01-01T07:59:15;97486.13;;;5.93;81.21
56142;BME280;42018;48.588;10.836;2023-01-01T08:02:00;97479.06;;;5.87;83.13
56142;BME280;42018;48.588;10.836;2023-01-01T08:04:46;97482.34;;;5.82;84.10
56142;BME280;42018;48.588;10.836;2023-01-01T08:07:34;97485.50;;;6.16;83.22
56142;BME280;42018;48.588;10.836;2023-01-01T08:10:19;97482.44;;;6.56;81.38
56142;BME280;42018;48.588;10.836;2023-01-01T08:13:07;97483.72;;;6.83;79.92
56142;BME280;42018;48.588;10.836;2023-01-01T08:15:52;97475.84;;;6.95;79.79
56142;BME280;42018;48.588;10.836;2023-01-01T08:18:39;97495.38;;;6.57;81.87
56142;BME280;42018;48.588;10.836;2023-01-01T08:21:24;97495.88;;;6.66;82.62
56142;BME280;42018;48.588;10.836;2023-01-01T08:24:10;97492.13;;;6.74;83.53
56142;BME280;42018;48.588;10.836;2023-01-01T08:26:55;97501.16;;;6.66;83.81
56142;BME280;42018;48.588;10.836;2023-01-01T08:29:41;97511.16;;;6.57;83.43
56142;BME280;42018;48.588;10.836;2023-01-01T08:32:27;97505.38;;;6.67;83.60
56142;BME280;42018;48.588;10.836;2023-01-01T08:35:12;97514.38;;;6.78;82.64
56142;BME280;42018;48.588;10.836;2023-01-01T08:37:58;97509.00;;;7.14;81.62
56142;BME280;42018;48.588;10.836;2023-01-01T08:40:46;97497.22;;;7.47;80.64
56142;BME280;42018;48.588;10.836;2023-01-01T08:43:31;97489.75;;;7.44;80.79
56142;BME280;42018;48.588;10.836;2023-01-01T08:46:16;97472.78;;;6.98;85.58
56142;BME280;42018;48.588;10.836;2023-01-01T08:49:02;97475.53;;;7.45;84.10
56142;BME280;42018;48.588;10.836;2023-01-01T08:51:47;97475.19;;;8.00;81.31
56142;BME280;42018;48.588;10.836;2023-01-01T08:54:32;97476.00;;;8.24;80.74
56142;BME280;42018;48.588;10.836;2023-01-01T08:57:18;97476.69;;;8.43;80.63
56142;BME280;42018;48.588;10.836;2023-01-01T09:00:04;97471.13;;;8.68;80.61
56142;BME280;42018;48.588;10.836;2023-01-01T09:02:49;97463.47;;;8.83;80.52
56142;BME280;42018;48.588;10.836;2023-01-01T09:05:35;97453.94;;;9.11;79.00
56142;BME280;42018;48.588;10.836;2023-01-01T09:08:20;97454.22;;;9.43;78.25
56142;BME280;42018;48.588;10.836;2023-01-01T09:11:06;97464.22;;;9.58;77.60
56142;BME280;42018;48.588;10.836;2023-01-01T09:13:51;97465.81;;;9.76;76.71
56142;BME280;42018;48.588;10.836;2023-01-01T09:16:38;97479.22;;;9.86;76.17
56142;BME280;42018;48.588;10.836;2023-01-01T09:19:24;97477.16;;;10.10;75.71
56142;BME280;42018;48.588;10.836;2023-01-01T09:22:10;97482.53;;;10.32;75.27
56142;BME280;42018;48.588;10.836;2023-01-01T09:24:56;97488.16;;;10.58;74.78
56142;BME280;42018;48.588;10.836;2023-01-01T09:27:41;97484.56;;;10.69;74.20
56142;BME280;42018;48.588;10.836;2023-01-01T09:30:27;97491.06;;;10.78;74.27
56142;BME280;42018;48.588;10.836;2023-01-01T09:33:12;97486.41;;;10.90;73.63
56142;BME280;42018;48.588;10.836;2023-01-01T09:36:24;97489.34;;;10.94;73.21
56142;BME280;42018;48.588;10.836;2023-01-01T09:39:14;97496.19;;;11.12;73.89
56142;BME280;42018;48.588;10.836;2023-01-01T09:47:52;97490.47;;;11.84;74.97
56142;BME280;42018;48.588;10.836;2023-01-01T09:50:40;97488.69;;;11.95;75.51
56142;BME280;42018;48.588;10.836;2023-01-01T09:53:49;97486.00;;;12.37;72.76
56142;BME280;42018;48.588;10.836;2023-01-01T09:56:39;97484.06;;;12.75;71.74
56142;BME280;42018;48.588;10.836;2023-01-01T09:59:25;97480.16;;;13.08;70.88
56142;BME280;42018;48.588;10.836;2023-01-01T10:17:26;97452.78;;;14.00;66.05
56142;BME280;42018;48.588;10.836;2023-01-01T10:20:19;97453.00;;;14.19;65.94
56142;BME280;42018;48.588;10.836;2023-01-01T10:23:15;97453.78;;;14.34;65.54
56142;BME280;42018;48.588;10.836;2023-01-01T10:26:09;97447.06;;;14.57;65.08
56142;BME280;42018;48.588;10.836;2023-01-01T10:29:11;97445.09;;;14.78;64.52
56142;BME280;42018;48.588;10.836;2023-01-01T10:32:13;97448.53;;;14.84;64.39
56142;BME280;42018;48.588;10.836;2023-01-01T10:34:59;97451.47;;;14.82;64.40
56142;BME280;42018;48.588;10.836;2023-01-01T10:37:45;97442.31;;;14.94;63.23
56142;BME280;42018;48.588;10.836;2023-01-01T10:40:32;97432.38;;;15.09;62.94
56142;BME280;42018;48.588;10.836;2023-01-01T10:43:17;97430.97;;;15.17;62.84
56142;BME280;42018;48.588;10.836;2023-01-01T10:46:04;97434.66;;;15.26;62.17
56142;BME280;42018;48.588;10.836;2023-01-01T10:49:16;97434.81;;;15.40;61.57
56142;BME280;42018;48.588;10.836;2023-01-01T10:52:01;97426.28;;;15.38;61.76
56142;BME280;42018;48.588;10.836;2023-01-01T10:54:48;97423.25;;;15.16;60.10
56142;BME280;42018;48.588;10.836;2023-01-01T10:57:35;97417.94;;;15.16;60.38
56142;BME280;42018;48.588;10.836;2023-01-01T11:00:26;97417.81;;;15.26;59.75
56142;BME280;42018;48.588;10.836;2023-01-01T11:03:20;97420.09;;;15.48;59.25
56142;BME280;42018;48.588;10.836;2023-01-01T11:08:59;97420.78;;;15.59;58.95
56142;BME280;42018;48.588;10.836;2023-01-01T11:11:47;97422.22;;;15.46;59.52
56142;BME280;42018;48.588;10.836;2023-01-01T11:14:54;97405.75;;;15.68;59.82
56142;BME280;42018;48.588;10.836;2023-01-01T11:17:40;97403.34;;;15.71;59.59
56142;BME280;42018;48.588;10.836;2023-01-01T11:20:25;97403.38;;;15.95;59.73
56142;BME280;42018;48.588;10.836;2023-01-01T11:23:38;97410.75;;;16.03;58.59
56142;BME280;42018;48.588;10.836;2023-01-01T11:26:23;97408.88;;;16.04;57.72
56142;BME280;42018;48.588;10.836;2023-01-01T11:29:27;97404.91;;;16.25;58.47
56142;BME280;42018;48.588;10.836;2023-01-01T11:32:30;97407.78;;;16.29;60.14
56142;BME280;42018;48.588;10.836;2023-01-01T11:35:20;97409.09;;;16.32;59.91
56142;BME280;42018;48.588;10.836;2023-01-01T11:38:16;97402.81;;;16.22;60.62
56142;BME280;42018;48.588;10.836;2023-01-01T11:41:04;97399.50;;;16.31;60.36
56142;BME280;42018;48.588;10.836;2023-01-01T11:43:50;97399.44;;;16.36;59.50
56142;BME280;42018;48.588;10.836;2023-01-01T11:46:36;97394.81;;;16.41;59.75
56142;BME280;42018;48.588;10.836;2023-01-01T11:49:26;97386.94;;;16.50;59.21
56142;BME280;42018;48.588;10.836;2023-01-01T11:52:33;97383.06;;;16.61;58.31
56142;BME280;42018;48.588;10.836;2023-01-01T12:01:02;97377.41;;;16.87;58.25
56142;BME280;42018;48.588;10.836;2023-01-01T12:04:00;97375.59;;;17.01;56.70
56142;BME280;42018;48.588;10.836;2023-01-01T12:09:59;97373.84;;;16.91;56.00
56142;BME280;42018;48.588;10.836;2023-01-01T12:12:49;97371.75;;;16.88;55.63
56142;BME280;42018;48.588;10.836;2023-01-01T12:15:40;97370.72;;;17.22;56.01
56142;BME280;42018;48.588;10.836;2023-01-01T12:18:44;97370.41;;;17.23;55.67
56142;BME280;42018;48.588;10.836;2023-01-01T12:21:33;97371.44;;;17.41;55.38
56142;BME280;42018;48.588;10.836;2023-01-01T12:24:19;97367.22;;;17.21;54.50
56142;BME280;42018;48.588;10.836;2023-01-01T12:27:13;97368.25;;;17.39;54.98
56142;BME280;42018;48.588;10.836;2023-01-01T12:30:14;97365.94;;;17.19;54.61
56142;BME280;42018;48.588;10.836;2023-01-01T12:51:28;97352.78;;;17.36;54.48
56142;BME280;42018;48.588;10.836;2023-01-01T12:57:48;97349.06;;;17.18;54.84
56142;BME280;42018;48.588;10.836;2023-01-01T13:00:42;97348.13;;;17.09;55.56
56142;BME280;42018;48.588;10.836;2023-01-01T13:03:33;97340.34;;;16.75;55.27
56142;BME280;42018;48.588;10.836;2023-01-01T13:09:34;97338.97;;;16.78;56.29
56142;BME280;42018;48.588;10.836;2023-01-01T13:12:22;97328.25;;;16.96;55.76
56142;BME280;42018;48.588;10.836;2023-01-01T13:15:48;97326.94;;;17.13;55.11
56142;BME280;42018;48.588;10.836;2023-01-01T13:18:34;97321.19;;;17.19;55.54
56142;BME280;42018;48.588;10.836;2023-01-01T13:21:21;97317.16;;;17.22;55.92
56142;BME280;42018;48.588;10.836;2023-01-01T13:24:21;97324.56;;;17.11;56.40
56142;BME280;42018;48.588;10.836;2023-01-01T13:27:07;97320.81;;;16.93;57.36
56142;BME280;42018;48.588;10.836;2023-01-01T13:29:54;97325.72;;;17.05;56.89
56142;BME280;42018;48.588;10.836;2023-01-01T13:39:02;97326.00;;;17.04;57.05
56142;BME280;42018;48.588;10.836;2023-01-01T13:41:48;97321.41;;;16.90;57.10
56142;BME280;42018;48.588;10.836;2023-01-01T13:44:33;97320.63;;;16.90;57.78
56142;BME280;42018;48.588;10.836;2023-01-01T13:48:15;97320.19;;;16.83;57.87
56142;BME280;42018;48.588;10.836;2023-01-01T13:56:54;97315.09;;;16.62;59.14
56142;BME280;42018;48.588;10.836;2023-01-01T14:02:46;97326.25;;;16.69;58.45
56142;BME280;42018;48.588;10.836;2023-01-01T14:05:40;97320.81;;;16.74;57.74
56142;BME280;42018;48.588;10.836;2023-01-01T14:08:33;97326.44;;;16.73;57.70
56142;BME280;42018;48.588;10.836;2023-01-01T14:11:23;97319.78;;;16.70;57.71
56142;BME280;42018;48.588;10.836;2023-01-01T14:14:26;97324.06;;;16.52;58.73
56142;BME280;42018;48.588;10.836;2023-01-01T14:17:14;97321.03;;;16.59;58.93
56142;BME280;42018;48.588;10.836;2023-01-01T14:20:05;97327.47;;;16.58;59.26
56142;BME280;42018;48.588;10.836;2023-01-01T14:22:51;97317.03;;;16.57;59.28
56142;BME280;42018;48.588;10.836;2023-01-01T14:25:39;97323.94;;;16.44;59.74
56142;BME280;42018;48.588;10.836;2023-01-01T14:28:27;97329.31;;;16.39;59.99
56142;BME280;42018;48.588;10.836;2023-01-01T14:31:15;97332.88;;;16.34;60.35
56142;BME280;42018;48.588;10.836;2023-01-01T14:37:20;97320.09;;;16.07;60.02
56142;BME280;42018;48.588;10.836;2023-01-01T14:40:25;97327.06;;;15.84;61.17
56142;BME280;42018;48.588;10.836;2023-01-01T14:43:12;97332.69;;;16.07;61.29
56142;BME280;42018;48.588;10.836;2023-01-01T14:45:58;97335.13;;;16.03;62.12
56142;BME280;42018;48.588;10.836;2023-01-01T14:48:45;97325.53;;;16.02;63.08
56142;BME280;42018;48.588;10.836;2023-01-01T14:51:32;97320.00;;;15.93;63.69
56142;BME280;42018;48.588;10.836;2023-01-01T14:54:20;97320.06;;;15.88;63.49
56142;BME280;42018;48.588;10.836;2023-01-01T14:57:14;97319.38;;;15.77;62.90
56142;BME280;42018;48.588;10.836;2023-01-01T15:00:03;97318.53;;;15.82;62.17
56142;BME280;42018;48.588;10.836;2023-01-01T15:03:09;97324.56;;;15.64;62.55
56142;BME280;42018;48.588;10.836;2023-01-01T15:06:00;97331.50;;;15.65;62.77
56142;BME280;42018;48.588;10.836;2023-01-01T15:08:50;97334.03;;;15.51;63.86
56142;BME280;42018;48.588;10.836;2023-01-01T15:11:35;97335.53;;;15.33;63.73
56142;BME280;42018;48.588;10.836;2023-01-01T15:14:38;97342.94;;;15.12;63.95
56142;BME280;42018;48.588;10.836;2023-01-01T15:17:25;97343.34;;;14.95;65.65
56142;BME280;42018;48.588;10.836;2023-01-01T15:23:02;97341.34;;;14.72;67.13
56142;BME280;42018;48.588;10.836;2023-01-01T15:25:48;97341.16;;;14.63;67.66
56142;BME280;42018;48.588;10.836;2023-01-01T15:28:35;97339.53;;;14.62;66.95
56142;BME280;42018;48.588;10.836;2023-01-01T15:31:22;97330.56;;;14.43;66.86
56142;BME280;42018;48.588;10.836;2023-01-01T15:34:56;97337.66;;;14.08;67.87
56142;BME280;42018;48.588;10.836;2023-01-01T15:37:51;97316.94;;;13.89;68.58
56142;BME280;42018;48.588;10.836;2023-01-01T15:40:38;97321.50;;;13.89;69.33
56142;BME280;42018;48.588;10.836;2023-01-01T15:43:29;97325.22;;;13.88;69.04
56142;BME280;42018;48.588;10.836;2023-01-01T15:46:20;97318.81;;;13.89;69.04
56142;BME280;42018;48.588;10.836;2023-01-01T15:49:27;97316.22;;;13.69;68.74
56142;BME280;42018;48.588;10.836;2023-01-01T15:52:22;97317.28;;;13.78;68.54
56142;BME280;42018;48.588;10.836;2023-01-01T15:55:15;97318.59;;;13.75;68.78
56142;BME280;42018;48.588;10.836;2023-01-01T15:58:01;97325.56;;;13.66;68.43
56142;BME280;42018;48.588;10.836;2023-01-01T16:00:56;97318.91;;;13.48;68.84
56142;BME280;42018;48.588;10.836;2023-01-01T16:03:45;97322.66;;;13.47;69.19
56142;BME280;42018;48.588;10.836;2023-01-01T16:06:33;97317.59;;;13.40;69.31
56142;BME280;42018;48.588;10.836;2023-01-01T16:09:25;97316.53;;;13.16;69.53
56142;BME280;42018;48.588;10.836;2023-01-01T16:12:11;97312.81;;;13.12;70.01
56142;BME280;42018;48.588;10.836;2023-01-01T16:14:56;97309.09;;;12.67;70.67
56142;BME280;42018;48.588;10.836;2023-01-01T16:17:42;97319.16;;;12.55;71.30
56142;BME280;42018;48.588;10.836;2023-01-01T16:20:28;97317.03;;;12.46;71.20
56142;BME280;42018;48.588;10.836;2023-01-01T16:23:15;97319.13;;;12.29;71.77
56142;BME280;42018;48.588;10.836;2023-01-01T16:26:00;97313.81;;;12.24;72.08
56142;BME280;42018;48.588;10.836;2023-01-01T16:28:45;97320.13;;;12.08;72.66
56142;BME280;42018;48.588;10.836;2023-01-01T16:31:31;97310.75;;;11.95;73.31